createdAt,value
2024-05-09T00:01:14.087Z,20.08
2024-05-09T00:03:49.330Z,20.09
2024-05-09T00:06:24.189Z,20.11
2024-05-09T00:08:58.901Z,20.08
2024-05-09T00:11:36.495Z,20.08
2024-05-09T00:14:11.264Z,20.08
2024-05-09T00:16:46.284Z,20.03
2024-05-09T00:19:21.330Z,20.03
2024-05-09T00:21:56.585Z,19.91
2024-05-09T00:24:31.757Z,19.98
2024-05-09T00:27:11.245Z,20.00
2024-05-09T00:29:47.862Z,19.92
2024-05-09T00:32:23.590Z,19.84
2024-05-09T00:34:58.383Z,19.90
2024-05-09T00:37:33.234Z,19.79
2024-05-09T00:40:18.258Z,19.85
2024-05-09T00:43:00.137Z,19.81
2024-05-09T00:45:34.772Z,19.72
2024-05-09T00:48:11.586Z,19.74
2024-05-09T00:50:49.386Z,19.67
2024-05-09T00:53:24.577Z,19.67
2024-05-09T00:56:00.435Z,19.57
2024-05-09T00:58:38.265Z,19.56
2024-05-09T01:01:13.653Z,19.44
2024-05-09T01:03:51.176Z,19.52
2024-05-09T01:06:26.282Z,19.50
2024-05-09T01:09:01.232Z,19.48
2024-05-09T01:11:39.237Z,19.43
2024-05-09T01:14:16.788Z,19.43
2024-05-09T01:16:52.093Z,19.41
2024-05-09T01:19:31.273Z,19.42
2024-05-09T01:22:08.026Z,19.41
2024-05-09T01:24:45.364Z,19.34
2024-05-09T01:27:20.022Z,19.30
2024-05-09T01:29:54.732Z,19.30
2024-05-09T01:32:29.515Z,19.30
2024-05-09T01:35:04.589Z,19.21
2024-05-09T01:37:40.381Z,19.18
2024-05-09T01:40:22.131Z,19.24
2024-05-09T01:42:59.962Z,19.22
2024-05-09T01:45:35.211Z,19.17
2024-05-09T01:48:11.211Z,19.15
2024-05-09T01:50:46.455Z,19.14
2024-05-09T01:53:21.207Z,19.17
2024-05-09T01:55:58.746Z,19.15
2024-05-09T01:58:33.555Z,19.09
2024-05-09T02:01:09.007Z,19.07
2024-05-09T02:03:44.032Z,18.99
2024-05-09T02:06:18.826Z,19.05
2024-05-09T02:08:53.607Z,19.03
2024-05-09T02:11:31.115Z,19.00
2024-05-09T02:14:09.518Z,18.99
2024-05-09T02:16:44.266Z,18.97
2024-05-09T02:19:19.069Z,18.86
2024-05-09T02:21:53.913Z,18.83
2024-05-09T02:24:28.753Z,18.92
2024-05-09T02:27:06.273Z,18.87
2024-05-09T02:29:41.068Z,18.86
2024-05-09T02:32:15.917Z,18.85
2024-05-09T02:34:50.663Z,18.82
2024-05-09T02:37:22.767Z,18.87
2024-05-09T02:39:57.419Z,18.76
2024-05-09T02:42:33.615Z,18.76
2024-05-09T02:45:09.122Z,18.74
2024-05-09T02:47:44.044Z,18.72
2024-05-09T02:50:19.279Z,18.70
2024-05-09T02:52:58.296Z,18.67
2024-05-09T02:55:30.292Z,18.64
2024-05-09T02:58:09.236Z,18.65
2024-05-09T03:00:42.895Z,18.62
2024-05-09T03:03:18.073Z,18.60
2024-05-09T03:05:50.215Z,18.55
2024-05-09T03:08:26.519Z,18.54
2024-05-09T03:10:58.725Z,18.56
2024-05-09T03:13:36.223Z,18.61
2024-05-09T03:16:08.334Z,18.56
2024-05-09T03:18:43.262Z,18.61
2024-05-09T03:21:15.344Z,18.61
2024-05-09T03:23:50.272Z,18.56
2024-05-09T03:26:22.543Z,18.47
2024-05-09T03:29:01.764Z,18.39
2024-05-09T03:31:33.768Z,18.44
2024-05-09T03:34:09.478Z,18.35
2024-05-09T03:36:43.058Z,18.39
2024-05-09T03:39:17.904Z,18.35
2024-05-09T03:41:52.499Z,18.28
2024-05-09T03:44:29.881Z,18.28
2024-05-09T03:47:02.017Z,18.25
2024-05-09T03:49:36.788Z,18.30
2024-05-09T03:52:08.847Z,18.20
2024-05-09T03:54:48.200Z,18.15
2024-05-09T03:57:20.440Z,18.18
2024-05-09T03:59:57.854Z,18.20
2024-05-09T04:02:30.052Z,18.27
2024-05-09T04:05:05.018Z,18.27
2024-05-09T04:07:37.724Z,18.27
2024-05-09T04:10:21.112Z,18.30
2024-05-09T04:12:59.955Z,18.33
2024-05-09T04:15:37.761Z,18.33
2024-05-09T04:18:10.212Z,18.29
2024-05-09T04:20:45.072Z,18.21
2024-05-09T04:23:17.199Z,18.27
2024-05-09T04:25:52.219Z,18.28
2024-05-09T04:28:24.210Z,18.18
2024-05-09T04:31:01.453Z,18.29
2024-05-09T04:33:33.661Z,18.25
2024-05-09T04:36:09.762Z,18.28
2024-05-09T04:38:41.943Z,18.23
2024-05-09T04:41:16.950Z,18.27
2024-05-09T04:43:50.852Z,18.28
2024-05-09T04:46:28.190Z,18.27
2024-05-09T04:49:00.321Z,18.22
2024-05-09T04:51:34.996Z,18.20
2024-05-09T04:54:10.636Z,18.23
2024-05-09T04:56:45.583Z,18.19
2024-05-09T04:59:17.758Z,18.16
2024-05-09T05:01:55.258Z,18.17
2024-05-09T05:04:27.364Z,18.19
2024-05-09T05:07:02.947Z,18.19
2024-05-09T05:09:35.630Z,18.15
2024-05-09T05:12:31.119Z,18.20
2024-05-09T05:15:03.424Z,18.23
2024-05-09T05:17:40.977Z,18.26
2024-05-09T05:20:17.876Z,18.21
2024-05-09T05:22:58.838Z,18.23
2024-05-09T05:25:30.890Z,18.24
2024-05-09T05:28:05.700Z,18.23
2024-05-09T05:30:38.838Z,18.24
2024-05-09T05:33:18.275Z,18.23
2024-05-09T05:35:50.892Z,18.29
2024-05-09T05:38:28.196Z,18.30
2024-05-09T05:41:00.863Z,18.31
2024-05-09T05:43:36.973Z,18.30
2024-05-09T05:46:08.952Z,18.32
2024-05-09T05:48:46.693Z,18.30
2024-05-09T05:51:19.188Z,18.37
2024-05-09T05:53:55.186Z,18.40
2024-05-09T05:56:27.648Z,18.38
2024-05-09T05:59:03.095Z,18.38
2024-05-09T06:01:35.640Z,18.43
2024-05-09T06:04:13.011Z,18.45
2024-05-09T06:06:45.057Z,18.42
2024-05-09T06:09:19.799Z,18.33
2024-05-09T06:11:52.160Z,18.42
2024-05-09T06:14:27.849Z,18.39
2024-05-09T06:17:00.192Z,18.45
2024-05-09T06:19:37.529Z,18.44
2024-05-09T06:22:11.081Z,18.43
2024-05-09T06:24:46.446Z,18.41
2024-05-09T06:27:18.821Z,18.45
2024-05-09T06:29:53.838Z,18.52
2024-05-09T06:32:25.999Z,18.56
2024-05-09T06:35:03.605Z,18.56
2024-05-09T06:37:35.903Z,18.59
2024-05-09T06:40:12.555Z,18.58
2024-05-09T06:42:46.797Z,18.62
2024-05-09T06:45:21.634Z,18.70
2024-05-09T06:47:54.074Z,18.67
2024-05-09T06:50:37.220Z,18.73
2024-05-09T06:53:15.334Z,18.78
2024-05-09T06:55:50.340Z,18.85
2024-05-09T06:58:25.285Z,18.82
2024-05-09T07:00:57.315Z,18.70
2024-05-09T07:03:32.767Z,19.03
2024-05-09T07:06:09.730Z,19.28
2024-05-09T07:08:44.758Z,19.32
2024-05-09T07:11:17.360Z,19.41
2024-05-09T07:13:52.232Z,19.33
2024-05-09T07:16:24.474Z,19.38
2024-05-09T07:18:59.827Z,19.71
2024-05-09T07:21:35.123Z,19.80
2024-05-09T07:24:10.108Z,20.00
2024-05-09T07:26:42.174Z,20.12
2024-05-09T07:29:16.911Z,20.20
2024-05-09T07:31:50.022Z,20.32
2024-05-09T07:34:25.572Z,20.43
2024-05-09T07:37:01.873Z,20.55
2024-05-09T07:39:36.602Z,20.71
2024-05-09T07:42:08.710Z,20.75
2024-05-09T07:44:43.565Z,20.73
2024-05-09T07:48:28.898Z,20.98
2024-05-09T07:53:35.260Z,21.19
2024-05-09T07:55:45.075Z,21.31
2024-05-09T07:58:17.272Z,21.38
2024-05-09T08:00:52.113Z,21.47
2024-05-09T08:03:24.472Z,21.65
2024-05-09T08:05:59.387Z,21.47
2024-05-09T08:08:34.216Z,21.68
2024-05-09T08:11:09.369Z,21.84
2024-05-09T08:13:41.623Z,22.07
2024-05-09T08:16:17.071Z,22.24
2024-05-09T08:18:49.530Z,22.27
2024-05-09T08:21:24.365Z,22.47
2024-05-09T08:23:59.078Z,22.65
2024-05-09T08:26:34.288Z,22.79
2024-05-09T08:29:06.345Z,23.00
2024-05-09T08:31:41.321Z,23.01
2024-05-09T08:34:14.166Z,23.08
2024-05-09T08:36:49.392Z,23.15
2024-05-09T08:39:24.221Z,23.31
2024-05-09T08:41:58.899Z,23.42
2024-05-09T08:44:31.548Z,23.47
2024-05-09T08:47:08.613Z,23.54
2024-05-09T09:01:44.558Z,23.90
2024-05-09T09:04:18.583Z,23.94
2024-05-09T09:06:58.294Z,24.03
2024-05-09T09:15:50.040Z,24.20
2024-05-09T09:18:26.427Z,24.30
2024-05-09T09:21:02.865Z,24.35
2024-05-09T09:23:35.080Z,24.45
2024-05-09T09:26:09.870Z,24.57
2024-05-09T09:28:41.967Z,24.62
2024-05-09T09:31:21.825Z,24.79
2024-05-09T09:33:56.806Z,24.80
2024-05-09T09:36:33.395Z,24.87
2024-05-09T09:39:07.547Z,24.90
2024-05-09T09:41:45.833Z,25.00
2024-05-09T09:44:19.612Z,25.04
2024-05-09T10:15:12.501Z,25.56
2024-05-09T10:17:51.078Z,25.58
2024-05-09T10:20:30.839Z,25.66
2024-05-09T10:23:05.456Z,25.73
2024-05-09T10:25:40.431Z,25.82
2024-05-09T10:28:13.197Z,25.83
2024-05-09T10:30:50.536Z,25.94
2024-05-09T10:33:23.206Z,25.94
2024-05-09T10:35:58.040Z,26.01
2024-05-09T10:38:31.016Z,26.05
2024-05-09T10:44:05.974Z,26.12
2024-05-09T10:46:41.370Z,26.17
2024-05-09T10:49:17.304Z,26.21
2024-05-09T10:51:50.653Z,26.36
2024-05-09T10:54:25.385Z,26.47
2024-05-09T10:56:57.800Z,26.52
2024-05-09T10:59:36.825Z,26.54
2024-05-09T11:02:12.616Z,26.66
2024-05-09T11:04:47.876Z,26.68
2024-05-09T11:07:21.528Z,26.69
2024-05-09T11:09:56.863Z,26.76
2024-05-09T11:12:29.581Z,26.83
2024-05-09T11:15:05.366Z,26.84
2024-05-09T11:17:40.025Z,26.90
2024-05-09T11:20:22.652Z,26.95
2024-05-09T11:23:01.719Z,26.99
2024-05-09T11:25:34.172Z,27.12
2024-05-09T11:28:10.669Z,27.17
2024-05-09T11:30:42.940Z,27.22
2024-05-09T11:33:21.689Z,27.32
2024-05-09T11:35:53.845Z,27.36
2024-05-09T11:38:28.913Z,27.45
2024-05-09T11:41:01.788Z,27.48
2024-05-09T11:43:37.530Z,27.19
2024-05-09T11:46:10.019Z,26.79
2024-05-09T11:48:48.280Z,26.93
2024-05-09T11:51:20.499Z,27.21
2024-05-09T11:53:55.198Z,27.42
2024-05-09T11:56:27.432Z,27.31
2024-05-09T11:59:02.409Z,26.98
2024-05-09T12:01:34.711Z,26.74
2024-05-09T12:04:12.341Z,26.78
2024-05-09T12:06:46.249Z,26.81
2024-05-09T12:09:21.558Z,26.81
2024-05-09T12:11:53.774Z,26.75
2024-05-09T12:14:28.880Z,26.76
2024-05-09T12:17:03.747Z,26.65
2024-05-09T12:19:41.727Z,26.74
2024-05-09T12:22:14.367Z,26.57
2024-05-09T12:24:49.357Z,26.50
2024-05-09T12:27:22.350Z,26.50
2024-05-09T12:29:57.418Z,26.53
2024-05-09T12:32:29.732Z,26.41
2024-05-09T12:35:07.812Z,26.45
2024-05-09T12:37:39.993Z,26.48
2024-05-09T12:40:22.933Z,26.48
2024-05-09T12:43:05.087Z,26.41
2024-05-09T12:45:40.395Z,26.43
2024-05-09T12:48:13.376Z,26.55
2024-05-09T12:50:51.611Z,26.61
2024-05-09T12:53:23.765Z,26.57
2024-05-09T12:56:02.237Z,26.61
2024-05-09T12:58:35.811Z,26.82
2024-05-09T13:01:10.501Z,26.90
2024-05-09T13:03:42.919Z,26.94
2024-05-09T13:06:20.516Z,27.07
2024-05-09T13:08:53.004Z,27.12
2024-05-09T13:11:27.914Z,27.31
2024-05-09T13:14:00.135Z,27.38
2024-05-09T13:16:35.010Z,27.50
2024-05-09T13:19:07.306Z,27.45
2024-05-09T13:21:44.643Z,27.58
2024-05-09T13:24:16.794Z,27.68
2024-05-09T13:26:51.441Z,27.71
2024-05-09T13:29:23.538Z,27.57
2024-05-09T13:31:58.351Z,27.76
2024-05-09T13:34:30.476Z,27.76
2024-05-09T13:37:08.101Z,27.84
2024-05-09T13:39:40.370Z,27.90
2024-05-09T13:42:15.222Z,27.96
2024-05-09T13:44:47.249Z,27.96
2024-05-09T13:47:22.272Z,27.91
2024-05-09T13:49:54.561Z,27.98
2024-05-09T13:52:31.886Z,28.17
2024-05-09T13:55:04.108Z,27.88
2024-05-09T13:57:39.593Z,27.94
2024-05-09T14:00:26.418Z,28.30
2024-05-09T14:03:07.523Z,28.48
2024-05-09T14:05:40.449Z,28.60
2024-05-09T14:08:19.470Z,28.70
2024-05-09T14:10:54.128Z,28.82
2024-05-09T14:13:29.055Z,28.88
2024-05-09T14:16:02.210Z,28.84
2024-05-09T14:18:37.498Z,28.86
2024-05-09T14:21:09.423Z,29.05
2024-05-09T14:23:46.596Z,29.05
2024-05-09T14:26:18.883Z,29.17
2024-05-09T14:28:53.644Z,29.24
2024-05-09T14:31:25.647Z,29.27
2024-05-09T14:34:00.894Z,29.27
2024-05-09T14:36:33.747Z,29.24
2024-05-09T14:39:11.024Z,29.34
2024-05-09T14:41:43.006Z,29.20
2024-05-09T14:44:17.692Z,29.25
2024-05-09T14:46:50.304Z,29.31
2024-05-09T14:49:25.172Z,29.42
2024-05-09T14:51:57.553Z,29.46
2024-05-09T14:54:35.366Z,29.54
2024-05-09T14:57:07.528Z,29.53
2024-05-09T14:59:42.119Z,29.68
2024-05-09T15:02:14.299Z,30.16
2024-05-09T15:04:49.325Z,30.42
2024-05-09T15:07:21.605Z,30.61
2024-05-09T15:09:59.401Z,30.80
2024-05-09T15:12:31.787Z,30.97
2024-05-09T15:15:07.011Z,31.05
2024-05-09T15:17:39.624Z,31.16
2024-05-09T15:20:17.548Z,31.23
2024-05-09T15:22:55.889Z,31.34
2024-05-09T15:25:33.964Z,31.41
2024-05-09T15:28:07.835Z,31.53
2024-05-09T15:30:45.963Z,31.57
2024-05-09T15:33:19.046Z,31.61
2024-05-09T15:35:54.380Z,31.66
2024-05-09T15:38:27.670Z,31.76
2024-05-09T15:41:04.902Z,31.81
2024-05-09T15:43:36.999Z,31.84
2024-05-09T15:46:11.856Z,31.85
2024-05-09T15:48:44.964Z,31.88
2024-05-09T15:51:19.774Z,31.92
2024-05-09T15:53:52.083Z,31.92
2024-05-09T15:56:29.883Z,31.98
2024-05-09T15:59:03.301Z,31.98
2024-05-09T16:01:38.277Z,31.94
2024-05-09T16:04:11.211Z,31.97
2024-05-09T16:06:47.930Z,31.53
2024-05-09T16:09:21.270Z,31.92
2024-05-09T16:11:59.015Z,31.91
2024-05-09T16:14:31.153Z,31.93
2024-05-09T16:17:05.977Z,31.89
2024-05-09T16:19:38.174Z,31.88
2024-05-09T16:22:13.236Z,31.79
2024-05-09T16:24:45.637Z,31.79
2024-05-09T16:27:23.070Z,31.74
2024-05-09T16:29:58.058Z,31.53
2024-05-09T16:32:32.808Z,31.62
2024-05-09T16:35:06.145Z,31.60
2024-05-09T16:37:41.448Z,31.56
2024-05-09T16:40:22.071Z,31.48
2024-05-09T16:43:08.530Z,31.21
2024-05-09T16:45:43.826Z,31.34
2024-05-09T16:48:19.378Z,31.28
2024-05-09T16:50:52.007Z,31.22
2024-05-09T16:53:27.672Z,30.79
2024-05-09T16:55:59.934Z,30.98
2024-05-09T16:58:37.362Z,30.74
2024-05-09T17:01:13.432Z,30.74
2024-05-09T17:03:48.182Z,30.65
2024-05-09T17:06:20.251Z,30.68
2024-05-09T17:08:55.602Z,30.71
2024-05-09T17:11:35.605Z,30.52
2024-05-09T17:14:12.939Z,30.58
2024-05-09T17:16:47.781Z,30.37
2024-05-09T17:19:19.978Z,30.41
2024-05-09T17:21:54.856Z,30.38
2024-05-09T17:24:26.933Z,30.17
2024-05-09T17:27:02.309Z,30.42
2024-05-09T17:29:37.535Z,30.03
2024-05-09T17:32:13.558Z,30.25
2024-05-09T17:34:45.834Z,30.19
2024-05-09T17:37:20.665Z,30.15
2024-05-09T17:39:54.859Z,30.04
2024-05-09T17:42:30.044Z,29.81
2024-05-09T17:45:05.214Z,29.57
2024-05-09T17:47:39.881Z,29.78
2024-05-09T17:50:17.353Z,29.84
2024-05-09T17:52:58.964Z,29.73
2024-05-09T17:55:31.151Z,29.74
2024-05-09T17:58:07.877Z,29.68
2024-05-09T18:00:43.054Z,29.51
2024-05-09T18:03:17.986Z,29.54
2024-05-09T18:05:50.433Z,29.42
2024-05-09T18:08:25.747Z,29.29
2024-05-09T18:10:59.157Z,29.18
2024-05-09T18:13:34.845Z,28.98
2024-05-09T18:16:09.646Z,28.98
2024-05-09T18:18:44.979Z,29.02
2024-05-09T18:21:19.864Z,28.82
2024-05-09T18:23:54.413Z,28.79
2024-05-09T18:26:30.459Z,28.80
2024-05-09T18:29:03.736Z,28.73
2024-05-09T18:31:41.124Z,28.69
2024-05-09T18:34:14.033Z,28.47
2024-05-09T18:36:49.323Z,28.52
2024-05-09T18:39:21.492Z,28.42
2024-05-09T18:41:56.249Z,28.28
2024-05-09T18:44:28.592Z,28.25
2024-05-09T18:47:05.915Z,28.21
2024-05-09T18:49:38.574Z,28.09
2024-05-09T18:52:13.268Z,28.22
2024-05-09T18:54:45.572Z,28.06
2024-05-09T18:57:20.501Z,27.93
2024-05-09T18:59:53.568Z,27.87
2024-05-09T19:02:30.962Z,27.80
2024-05-09T19:05:03.258Z,27.57
2024-05-09T19:07:38.142Z,27.53
2024-05-09T19:10:22.020Z,27.47
2024-05-09T19:13:00.668Z,27.49
2024-05-09T19:15:33.234Z,27.63
2024-05-09T19:18:11.084Z,27.47
2024-05-09T19:20:43.988Z,27.26
2024-05-09T19:23:18.820Z,27.21
2024-05-09T19:25:51.360Z,27.23
2024-05-09T19:28:25.999Z,27.18
2024-05-09T19:30:58.161Z,27.33
2024-05-09T19:33:36.945Z,27.20
2024-05-09T19:36:09.717Z,27.14
2024-05-09T19:38:44.192Z,27.11
2024-05-09T19:41:16.288Z,27.09
2024-05-09T19:43:50.978Z,27.06
2024-05-09T19:46:24.126Z,27.02
2024-05-09T19:49:02.320Z,26.96
2024-05-09T19:51:34.564Z,26.93
2024-05-09T19:54:09.292Z,26.88
2024-05-09T19:56:45.053Z,26.85
2024-05-09T19:59:19.800Z,26.77
2024-05-09T20:01:52.257Z,26.67
2024-05-09T20:04:29.796Z,26.64
2024-05-09T20:07:02.520Z,26.57
2024-05-09T20:09:37.440Z,26.55
2024-05-09T20:12:09.948Z,26.43
2024-05-09T20:14:44.672Z,26.38
2024-05-09T20:17:17.767Z,26.33
2024-05-09T20:19:55.559Z,26.28
2024-05-09T20:22:27.688Z,26.21
2024-05-09T20:25:03.569Z,26.17
2024-05-09T20:27:35.727Z,26.11
2024-05-09T20:30:14.447Z,26.10
2024-05-09T20:32:49.081Z,26.02
2024-05-09T20:35:26.471Z,25.92
2024-05-09T20:37:59.184Z,25.86
2024-05-09T20:40:37.728Z,25.84
2024-05-09T20:43:11.608Z,25.78
2024-05-09T20:45:46.483Z,25.73
2024-05-09T20:48:18.749Z,25.69
2024-05-09T20:50:56.373Z,25.65
2024-05-09T20:53:28.668Z,25.59
2024-05-09T20:56:03.441Z,25.60
2024-05-09T20:58:35.494Z,25.56
2024-05-09T21:01:10.417Z,25.51
2024-05-09T21:03:42.872Z,25.50
2024-05-09T21:06:20.228Z,25.45
2024-05-09T21:08:52.766Z,25.45
2024-05-09T21:11:27.912Z,25.43
2024-05-09T21:13:59.964Z,25.43
2024-05-09T21:16:35.022Z,25.36
2024-05-09T21:19:07.351Z,25.32
2024-05-09T21:21:45.353Z,25.27
2024-05-09T21:24:17.477Z,25.24
2024-05-09T21:26:52.088Z,25.20
2024-05-09T21:29:24.494Z,25.13
2024-05-09T21:31:59.318Z,25.11
2024-05-09T21:34:31.739Z,25.06
2024-05-09T21:37:09.075Z,25.02
2024-05-09T21:39:41.258Z,24.96
2024-05-09T21:42:16.727Z,24.94
2024-05-09T21:44:48.807Z,24.88
2024-05-09T21:47:23.661Z,24.83
2024-05-09T21:49:55.725Z,24.81
2024-05-09T21:52:33.624Z,24.76
2024-05-09T21:55:06.590Z,24.71
2024-05-09T21:57:41.540Z,24.68
2024-05-09T22:00:20.371Z,24.62
2024-05-09T22:03:00.635Z,24.57
2024-05-09T22:05:33.270Z,24.53
2024-05-09T22:08:11.488Z,24.49
2024-05-09T22:10:44.152Z,24.43
2024-05-09T22:13:20.549Z,24.36
2024-05-09T22:15:53.169Z,24.31
2024-05-09T22:18:27.876Z,24.31
2024-05-09T22:21:00.142Z,24.23
2024-05-09T22:23:37.519Z,24.21
2024-05-09T22:26:09.974Z,24.19
2024-05-09T22:28:45.101Z,24.14
2024-05-09T22:31:17.146Z,24.13
2024-05-09T22:33:52.219Z,24.08
2024-05-09T22:36:24.668Z,24.05
2024-05-09T22:39:01.977Z,24.02
2024-05-09T22:41:34.063Z,23.95
2024-05-09T22:44:09.075Z,23.91
2024-05-09T22:46:41.243Z,23.91
2024-05-09T22:49:15.955Z,23.87
2024-05-09T22:51:48.207Z,23.85
2024-05-09T22:54:25.614Z,23.81
2024-05-09T22:56:57.824Z,23.75
2024-05-09T22:59:32.875Z,23.82
2024-05-09T23:02:05.124Z,23.81
2024-05-09T23:04:41.074Z,23.82
2024-05-09T23:07:13.366Z,23.79
2024-05-09T23:09:51.161Z,23.77
2024-05-09T23:12:23.742Z,23.74
2024-05-09T23:14:58.468Z,23.67
2024-05-09T23:17:30.741Z,23.63
2024-05-09T23:20:08.784Z,23.61
2024-05-09T23:22:41.066Z,23.58
2024-05-09T23:25:18.522Z,23.54
2024-05-09T23:27:50.780Z,23.54
2024-05-09T23:30:33.745Z,23.53
2024-05-09T23:33:11.941Z,23.51
2024-05-09T23:35:47.087Z,23.48
2024-05-09T23:38:21.781Z,23.49
2024-05-09T23:41:01.166Z,23.39
2024-05-09T23:43:33.837Z,23.37
2024-05-09T23:46:09.412Z,23.34
2024-05-09T23:48:41.753Z,23.32
2024-05-09T23:51:17.444Z,23.29
2024-05-09T23:53:49.522Z,23.25
2024-05-09T23:56:27.024Z,23.22
2024-05-09T23:58:59.085Z,23.24
